createdAt,value
2019-05-06T00:01:21.317Z,100229.92
2019-05-06T00:03:54.185Z,100228.53
2019-05-06T00:06:26.127Z,100227.89
2019-05-06T00:08:57.836Z,100229.46
2019-05-06T00:11:29.571Z,100227.27
2019-05-06T00:14:03.905Z,100231.72
2019-05-06T00:16:35.942Z,100231.40
2019-05-06T00:19:07.651Z,100231.66
2019-05-06T00:21:39.305Z,100228.94
2019-05-06T00:24:11.305Z,100237.53
2019-05-06T00:27:07.853Z,100232.01
2019-05-06T00:29:39.558Z,100225.61
2019-05-06T00:32:11.274Z,100233.73
2019-05-06T00:34:43.689Z,100233.34
2019-05-06T00:37:15.755Z,100238.12
2019-05-06T00:39:54.964Z,100238.98
2019-05-06T00:42:44.775Z,100247.89
2019-05-06T00:45:16.462Z,100250.19
2019-05-06T00:47:48.185Z,100249.31
2019-05-06T00:50:19.862Z,100251.79
2019-05-06T00:52:53.972Z,100246.58
2019-05-06T00:55:25.763Z,100243.73
2019-05-06T00:57:58.458Z,100239.80
2019-05-06T01:00:34.190Z,100235.04
2019-05-06T01:03:05.846Z,100227.93
2019-05-06T01:05:37.605Z,100221.72
2019-05-06T01:08:09.260Z,100228.80
2019-05-06T01:10:40.999Z,100225.66
2019-05-06T01:13:35.858Z,100236.11
2019-05-06T01:16:09.024Z,100227.01
2019-05-06T01:18:40.829Z,100229.88
2019-05-06T01:21:14.511Z,100225.90
2019-05-06T01:23:46.442Z,100222.22
2019-05-06T01:26:18.327Z,100220.02
2019-05-06T01:28:51.088Z,100219.80
2019-05-06T01:31:26.032Z,100223.75
2019-05-06T01:33:58.033Z,100218.66
2019-05-06T01:36:29.686Z,100220.56
2019-05-06T01:39:29.442Z,100218.02
2019-05-06T01:42:13.883Z,100225.33
2019-05-06T01:44:45.943Z,100221.33
2019-05-06T01:47:17.648Z,100221.77
2019-05-06T01:49:49.340Z,100223.25
2019-05-06T01:52:21.236Z,100213.02
2019-05-06T01:54:54.230Z,100215.91
2019-05-06T01:57:26.274Z,100213.13
2019-05-06T01:59:57.985Z,100210.73
2019-05-06T02:02:30.049Z,100203.41
2019-05-06T02:05:04.571Z,100204.07
2019-05-06T02:07:35.555Z,100198.62
2019-05-06T02:10:07.640Z,100196.75
2019-05-06T02:12:49.902Z,100201.08
2019-05-06T02:15:23.394Z,100202.38
2019-05-06T02:17:55.312Z,100199.81
2019-05-06T02:20:27.110Z,100191.42
2019-05-06T02:23:09.672Z,100194.83
2019-05-06T02:25:45.366Z,100194.48
2019-05-06T02:28:17.130Z,100199.41
2019-05-06T02:31:06.249Z,100188.44
2019-05-06T02:33:56.769Z,100185.77
2019-05-06T02:36:36.678Z,100189.63
2019-05-06T02:39:08.378Z,100182.27
2019-05-06T02:41:42.799Z,100183.02
2019-05-06T02:44:13.880Z,100184.53
2019-05-06T02:46:48.624Z,100186.36
2019-05-06T02:49:39.621Z,100177.37
2019-05-06T02:52:14.055Z,100182.78
2019-05-06T02:54:47.293Z,100180.53
2019-05-06T02:57:23.513Z,100177.92
2019-05-06T02:59:55.157Z,100174.05
2019-05-06T03:02:41.878Z,100170.43
2019-05-06T03:05:04.231Z,100167.23
2019-05-06T03:07:37.656Z,100167.21
2019-05-06T03:10:09.537Z,100176.94
2019-05-06T03:12:43.068Z,100169.16
2019-05-06T03:15:16.803Z,100178.44
2019-05-06T03:17:49.037Z,100175.81
2019-05-06T03:20:43.740Z,100178.37
2019-05-06T03:23:15.058Z,100181.36
2019-05-06T03:25:46.743Z,100186.16
2019-05-06T03:28:18.406Z,100184.64
2019-05-06T03:30:55.912Z,100185.74
2019-05-06T03:33:47.828Z,100184.82
2019-05-06T03:36:13.760Z,100185.72
2019-05-06T03:38:33.535Z,100185.83
2019-05-06T03:41:05.503Z,100183.23
2019-05-06T03:43:39.832Z,100179.75
2019-05-06T03:46:28.869Z,100178.52
2019-05-06T03:49:03.836Z,100180.03
2019-05-06T03:51:35.645Z,100179.20
2019-05-06T03:54:07.352Z,100182.09
2019-05-06T03:56:43.142Z,100187.00
2019-05-06T03:59:13.785Z,100182.24
2019-05-06T04:01:45.798Z,100188.80
2019-05-06T04:04:17.843Z,100180.94
2019-05-06T04:06:49.564Z,100182.78
2019-05-06T04:09:23.978Z,100187.43
2019-05-06T04:11:55.422Z,100186.16
2019-05-06T04:14:28.271Z,100186.45
2019-05-06T04:17:24.644Z,100189.25
2019-05-06T04:20:05.757Z,100190.41
2019-05-06T04:23:13.359Z,100182.68
2019-05-06T04:25:58.391Z,100189.21
2019-05-06T04:28:34.213Z,100178.22
2019-05-06T04:31:07.872Z,100182.09
2019-05-06T04:33:39.278Z,100183.37
2019-05-06T04:36:13.136Z,100183.91
2019-05-06T04:38:44.342Z,100184.56
2019-05-06T04:41:16.008Z,100181.98
2019-05-06T04:43:47.663Z,100180.92
2019-05-06T04:46:19.385Z,100186.63
2019-05-06T04:48:53.883Z,100182.75
2019-05-06T04:51:25.074Z,100186.95
2019-05-06T04:53:57.174Z,100182.69
2019-05-06T04:56:28.910Z,100180.41
2019-05-06T04:59:06.447Z,100180.09
2019-05-06T05:01:37.714Z,100179.44
2019-05-06T05:04:26.894Z,100176.24
2019-05-06T05:06:43.208Z,100173.90
2019-05-06T05:09:17.563Z,100169.44
2019-05-06T05:11:56.915Z,100170.38
2019-05-06T05:14:42.176Z,100176.69
2019-05-06T05:17:34.323Z,100180.14
2019-05-06T05:20:09.847Z,100185.20
2019-05-06T05:22:44.030Z,100193.88
2019-05-06T05:25:15.750Z,100194.72
2019-05-06T05:27:47.457Z,100197.38
2019-05-06T05:30:19.198Z,100193.82
2019-05-06T05:32:52.072Z,100197.11
2019-05-06T05:35:24.169Z,100185.77
2019-05-06T05:37:57.185Z,100197.97
2019-05-06T05:40:28.898Z,100197.34
2019-05-06T05:43:08.231Z,100189.53
2019-05-06T05:45:42.311Z,100197.28
2019-05-06T05:48:23.581Z,100200.53
2019-05-06T05:50:55.255Z,100196.81
2019-05-06T05:53:27.044Z,100200.53
2019-05-06T05:56:02.414Z,100201.59
2019-05-06T05:58:33.709Z,100202.21
2019-05-06T06:01:05.430Z,100204.28
2019-05-06T06:03:37.147Z,100203.97
2019-05-06T06:06:09.025Z,100210.00
2019-05-06T06:08:43.128Z,100216.18
2019-05-06T06:11:34.403Z,100213.42
2019-05-06T06:17:12.965Z,100222.49
2019-05-06T06:19:54.983Z,100223.59
2019-05-06T06:22:28.043Z,100223.02
2019-05-06T06:24:59.738Z,100226.35
2019-05-06T06:28:11.957Z,100227.14
2019-05-06T06:30:52.043Z,100230.98
2019-05-06T06:33:23.868Z,100238.25
2019-05-06T06:36:06.421Z,100239.94
2019-05-06T06:38:54.799Z,100240.11
2019-05-06T06:41:26.555Z,100246.47
2019-05-06T06:44:02.670Z,100244.54
2019-05-06T06:46:34.352Z,100245.08
2019-05-06T06:49:07.001Z,100242.59
2019-05-06T06:51:39.078Z,100244.76
2019-05-06T06:54:12.321Z,100246.41
2019-05-06T06:57:05.308Z,100246.09
2019-05-06T06:59:43.489Z,100248.36
2019-05-06T07:02:37.105Z,100247.20
2019-05-06T07:05:27.535Z,100253.34
2019-05-06T07:07:53.093Z,100244.39
2019-05-06T07:10:43.546Z,100245.60
2019-05-06T07:13:16.557Z,100250.68
2019-05-06T07:15:52.025Z,100247.70
2019-05-06T07:18:24.998Z,100248.89
2019-05-06T07:21:18.863Z,100256.38
2019-05-06T07:23:53.020Z,100252.84
2019-05-06T07:26:28.126Z,100253.52
2019-05-06T07:29:04.011Z,100247.41
2019-05-06T07:31:33.715Z,100256.25
2019-05-06T07:34:05.400Z,100259.05
2019-05-06T07:36:37.105Z,100258.14
2019-05-06T07:39:09.001Z,100266.12
2019-05-06T07:41:53.630Z,100268.12
2019-05-06T07:44:45.601Z,100266.12
2019-05-06T07:47:25.186Z,100270.25
2019-05-06T07:49:56.905Z,100267.17
2019-05-06T07:52:28.625Z,100278.00
2019-05-06T07:55:02.506Z,100277.61
2019-05-06T07:57:34.288Z,100280.22
2019-05-06T08:00:06.656Z,100280.49
2019-05-06T08:02:38.320Z,100281.95
2019-05-06T08:05:10.084Z,100284.16
2019-05-06T08:07:42.397Z,100281.27
2019-05-06T08:10:14.330Z,100282.85
2019-05-06T08:12:48.938Z,100286.42
2019-05-06T08:15:22.557Z,100286.76
2019-05-06T08:17:54.066Z,100292.52
2019-05-06T08:20:36.979Z,100292.58
2019-05-06T08:23:32.544Z,100293.92
2019-05-06T08:26:12.614Z,100293.12
2019-05-06T08:28:41.375Z,100302.59
2019-05-06T08:31:12.806Z,100300.58
2019-05-06T08:33:44.638Z,100307.19
2019-05-06T08:36:22.673Z,100304.12
2019-05-06T08:38:59.580Z,100308.37
2019-05-06T08:41:34.972Z,100308.59
2019-05-06T08:44:06.771Z,100313.98
2019-05-06T08:46:38.521Z,100315.97
2019-05-06T08:49:12.306Z,100318.45
2019-05-06T08:52:06.301Z,100315.59
2019-05-06T08:54:43.360Z,100325.44
2019-05-06T08:57:15.358Z,100325.97
2019-05-06T08:59:48.735Z,100326.59
2019-05-06T09:02:24.234Z,100325.45
2019-05-06T09:04:55.916Z,100323.77
2019-05-06T09:07:27.604Z,100324.14
2019-05-06T09:09:59.399Z,100319.15
2019-05-06T09:12:32.955Z,100316.34
2019-05-06T09:15:05.519Z,100325.42
2019-05-06T09:17:37.406Z,100318.53
2019-05-06T09:20:09.168Z,100318.27
2019-05-06T09:22:43.620Z,100316.67
2019-05-06T09:25:16.537Z,100319.03
2019-05-06T09:28:04.830Z,100315.33
2019-05-06T09:30:44.539Z,100322.05
2019-05-06T09:33:22.782Z,100321.78
2019-05-06T09:35:54.944Z,100313.89
2019-05-06T09:38:26.708Z,100319.38
2019-05-06T09:40:58.564Z,100328.75
2019-05-06T09:43:32.700Z,100333.47
2019-05-06T09:46:03.898Z,100332.43
2019-05-06T09:49:13.053Z,100334.55
2019-05-06T09:51:44.702Z,100341.06
2019-05-06T09:54:42.798Z,100343.94
2019-05-06T09:57:18.603Z,100337.62
2019-05-06T09:59:52.515Z,100331.13
2019-05-06T10:02:23.926Z,100331.50
2019-05-06T10:04:55.759Z,100323.74
2019-05-06T10:07:27.506Z,100325.81
2019-05-06T10:09:59.153Z,100325.53
2019-05-06T10:12:32.862Z,100320.67
2019-05-06T10:15:05.523Z,100331.09
2019-05-06T10:17:38.705Z,100337.00
2019-05-06T10:20:12.434Z,100338.86
2019-05-06T10:22:47.276Z,100333.72
2019-05-06T10:25:22.656Z,100337.66
2019-05-06T10:27:57.310Z,100329.63
2019-05-06T10:30:29.232Z,100333.70
2019-05-06T10:33:02.231Z,100325.96
2019-05-06T10:35:33.939Z,100326.19
2019-05-06T10:38:15.357Z,100328.78
2019-05-06T10:40:59.664Z,100334.97
2019-05-06T10:43:32.665Z,100334.38
2019-05-06T10:46:05.199Z,100339.88
2019-05-06T10:48:36.889Z,100345.03
2019-05-06T10:51:22.895Z,100342.31
2019-05-06T10:53:54.610Z,100343.45
2019-05-06T10:56:53.972Z,100347.39
2019-05-06T10:59:22.478Z,100344.14
2019-05-06T11:01:58.607Z,100345.92
2019-05-06T11:04:33.097Z,100348.17
2019-05-06T11:07:06.274Z,100350.95
2019-05-06T11:09:37.921Z,100347.14
2019-05-06T11:12:09.623Z,100343.39
2019-05-06T11:14:41.427Z,100344.02
2019-05-06T11:17:14.696Z,100343.85
2019-05-06T11:19:46.402Z,100337.51
2019-05-06T11:22:21.192Z,100330.05
2019-05-06T11:24:51.506Z,100324.00
2019-05-06T11:27:32.138Z,100340.05
2019-05-06T11:30:02.288Z,100332.14
2019-05-06T11:32:42.092Z,100333.80
2019-05-06T11:35:19.666Z,100334.19
2019-05-06T11:38:12.021Z,100330.61
2019-05-06T11:40:44.992Z,100328.93
2019-05-06T11:43:18.058Z,100330.59
2019-05-06T11:45:51.999Z,100334.59
2019-05-06T11:48:23.450Z,100327.02
2019-05-06T11:50:58.748Z,100333.59
2019-05-06T11:53:32.563Z,100329.16
2019-05-06T11:56:05.931Z,100328.88
2019-05-06T11:58:42.738Z,100320.61
2019-05-06T12:01:38.112Z,100315.70
2019-05-06T12:04:09.809Z,100318.95
2019-05-06T12:06:42.308Z,100326.14
2019-05-06T12:09:17.100Z,100318.59
2019-05-06T12:11:48.044Z,100322.36
2019-05-06T12:14:22.684Z,100312.06
2019-05-06T12:16:55.240Z,100315.92
2019-05-06T12:19:27.056Z,100315.25
2019-05-06T12:21:58.774Z,100303.97
2019-05-06T12:24:30.512Z,100313.67
2019-05-06T12:27:03.262Z,100311.98
2019-05-06T12:29:38.026Z,100304.31
2019-05-06T12:32:30.278Z,100299.25
2019-05-06T12:35:04.162Z,100296.30
2019-05-06T12:37:36.928Z,100300.70
2019-05-06T12:40:08.834Z,100304.85
2019-05-06T12:42:44.332Z,100309.56
2019-05-06T12:45:25.106Z,100299.23
2019-05-06T12:48:03.266Z,100306.23
2019-05-06T12:50:35.330Z,100311.95
2019-05-06T12:53:07.079Z,100304.81
2019-05-06T12:55:38.799Z,100305.36
2019-05-06T12:58:13.380Z,100295.27
2019-05-06T13:00:44.932Z,100292.95
2019-05-06T13:03:16.842Z,100293.65
2019-05-06T13:05:52.120Z,100288.77
2019-05-06T13:08:32.418Z,100286.05
2019-05-06T13:10:59.680Z,100285.28
2019-05-06T13:13:33.207Z,100284.67
2019-05-06T13:16:05.399Z,100281.86
2019-05-06T13:18:37.133Z,100279.27
2019-05-06T13:21:08.897Z,100288.52
2019-05-06T13:23:44.966Z,100283.77
2019-05-06T13:26:16.641Z,100286.52
2019-05-06T13:28:53.175Z,100287.02
2019-05-06T13:31:25.892Z,100281.37
2019-05-06T13:34:15.453Z,100284.25
2019-05-06T13:36:47.513Z,100278.91
2019-05-06T13:39:19.170Z,100272.46
2019-05-06T13:41:52.838Z,100270.92
2019-05-06T13:44:26.058Z,100274.34
2019-05-06T13:46:57.855Z,100270.63
2019-05-06T13:49:52.201Z,100262.42
2019-05-06T13:52:27.779Z,100259.41
2019-05-06T13:54:59.512Z,100263.52
2019-05-06T13:57:32.088Z,100258.09
2019-05-06T14:00:06.629Z,100250.85
2019-05-06T14:02:47.659Z,100253.29
2019-05-06T14:05:19.355Z,100252.66
2019-05-06T14:07:52.724Z,100243.78
2019-05-06T14:10:24.345Z,100243.16
2019-05-06T14:12:56.043Z,100246.14
2019-05-06T14:15:27.778Z,100240.89
2019-05-06T14:17:59.507Z,100242.44
2019-05-06T14:20:33.496Z,100246.86
2019-05-06T14:23:05.232Z,100240.53
2019-05-06T14:25:55.774Z,100237.14
2019-05-06T14:28:33.241Z,100223.78
2019-05-06T14:31:13.018Z,100222.63
2019-05-06T14:33:46.305Z,100225.09
2019-05-06T14:36:17.989Z,100234.53
2019-05-06T14:38:53.340Z,100227.95
2019-05-06T14:41:27.479Z,100229.37
2019-05-06T14:44:02.678Z,100227.31
2019-05-06T14:46:51.744Z,100223.00
2019-05-06T14:49:25.042Z,100217.30
2019-05-06T14:51:56.723Z,100215.30
2019-05-06T14:54:28.429Z,100209.23
2019-05-06T14:57:18.956Z,100210.03
2019-05-06T14:59:55.432Z,100214.05
2019-05-06T15:02:28.207Z,100214.77
2019-05-06T15:05:02.767Z,100217.34
2019-05-06T15:07:33.572Z,100221.34
2019-05-06T15:10:19.046Z,100230.73
2019-05-06T15:12:38.676Z,100226.53
2019-05-06T15:15:12.125Z,100223.31
2019-05-06T15:17:43.797Z,100228.20
2019-05-06T15:20:15.470Z,100230.84
2019-05-06T15:22:47.159Z,100232.25
2019-05-06T15:25:18.811Z,100226.39
2019-05-06T15:27:50.534Z,100220.31
2019-05-06T15:30:29.519Z,100227.41
2019-05-06T15:33:02.528Z,100233.37
2019-05-06T15:35:52.504Z,100241.09
2019-05-06T15:38:26.870Z,100243.84
2019-05-06T15:40:58.590Z,100255.02
2019-05-06T15:43:30.261Z,100242.62
2019-05-06T15:46:03.292Z,100229.95
2019-05-06T15:48:35.463Z,100233.95
2019-05-06T15:51:07.191Z,100226.09
2019-05-06T15:53:38.962Z,100230.17
2019-05-06T15:56:12.342Z,100235.00
2019-05-06T15:58:44.010Z,100238.79
2019-05-06T16:01:15.767Z,100237.36
2019-05-06T16:03:47.599Z,100225.59
2019-05-06T16:06:19.282Z,100241.59
2019-05-06T16:08:52.752Z,100236.86
2019-05-06T16:11:24.968Z,100238.69
2019-05-06T16:13:56.685Z,100241.40
2019-05-06T16:16:28.721Z,100234.20
2019-05-06T16:19:03.822Z,100229.34
2019-05-06T16:21:33.824Z,100222.38
2019-05-06T16:24:19.221Z,100230.09
2019-05-06T16:26:52.673Z,100231.62
2019-05-06T16:29:35.709Z,100239.69
2019-05-06T16:32:10.698Z,100260.30
2019-05-06T16:34:43.092Z,100263.88
2019-05-06T16:37:14.860Z,100267.87
2019-05-06T16:39:46.561Z,100265.20
2019-05-06T16:42:18.278Z,100267.66
2019-05-06T16:44:52.744Z,100270.82
2019-05-06T16:47:39.756Z,100263.02
2019-05-06T16:50:13.199Z,100264.64
2019-05-06T16:52:45.884Z,100260.88
2019-05-06T16:55:24.217Z,100265.52
2019-05-06T16:58:04.590Z,100260.87
2019-05-06T17:00:38.515Z,100269.82
2019-05-06T17:03:23.063Z,100276.05
2019-05-06T17:06:18.837Z,100267.31
2019-05-06T17:08:52.959Z,100278.27
2019-05-06T17:11:33.373Z,100273.42
2019-05-06T17:14:03.083Z,100274.55
2019-05-06T17:16:36.800Z,100276.57
2019-05-06T17:19:12.499Z,100280.70
2019-05-06T17:21:42.831Z,100279.52
2019-05-06T17:24:14.559Z,100279.41
2019-05-06T17:26:46.976Z,100285.94
2019-05-06T17:29:26.748Z,100288.20
2019-05-06T17:32:23.890Z,100291.20
2019-05-06T17:34:57.683Z,100309.76
2019-05-06T17:38:03.944Z,100316.14
2019-05-06T17:40:35.858Z,100307.16
2019-05-06T17:43:09.564Z,100305.52
2019-05-06T17:46:01.704Z,100307.56
2019-05-06T17:49:03.139Z,100307.30
2019-05-06T17:51:42.551Z,100317.25
2019-05-06T17:54:15.322Z,100300.12
2019-05-06T17:56:47.071Z,100295.25
2019-05-06T17:59:18.756Z,100293.48
2019-05-06T18:01:53.149Z,100288.36
2019-05-06T18:04:24.969Z,100280.02
2019-05-06T18:06:56.620Z,100294.06
2019-05-06T18:09:28.446Z,100288.78
2019-05-06T18:12:02.913Z,100294.87
2019-05-06T18:14:34.113Z,100298.70
2019-05-06T18:17:05.796Z,100297.34
2019-05-06T18:19:39.755Z,100299.67
2019-05-06T18:22:13.140Z,100293.98
2019-05-06T18:24:45.056Z,100291.64
2019-05-06T18:27:17.545Z,100296.38
2019-05-06T18:29:49.247Z,100286.04
2019-05-06T18:32:23.174Z,100284.95
2019-05-06T18:34:54.362Z,100284.95
2019-05-06T18:37:26.351Z,100291.05
2019-05-06T18:39:58.080Z,100290.33
2019-05-06T18:42:29.900Z,100288.36
2019-05-06T18:45:02.741Z,100289.76
2019-05-06T18:47:34.578Z,100287.36
2019-05-06T18:50:06.556Z,100281.05
2019-05-06T18:52:38.392Z,100273.73
2019-05-06T18:55:12.531Z,100275.45
2019-05-06T18:57:44.253Z,100283.45
2019-05-06T19:00:15.980Z,100281.55
2019-05-06T19:02:47.741Z,100277.92
2019-05-06T19:05:26.957Z,100276.01
2019-05-06T19:07:57.459Z,100275.25
2019-05-06T19:10:34.776Z,100285.08
2019-05-06T19:13:08.679Z,100290.94
2019-05-06T19:15:39.933Z,100293.12
2019-05-06T19:18:12.893Z,100289.09
2019-05-06T19:20:44.961Z,100289.95
2019-05-06T19:23:16.649Z,100293.07
2019-05-06T19:25:48.488Z,100286.27
2019-05-06T19:28:22.016Z,100278.06
2019-05-06T19:30:55.721Z,100270.71
2019-05-06T19:33:27.463Z,100279.70
2019-05-06T19:35:59.313Z,100283.33
2019-05-06T19:38:33.525Z,100280.44
2019-05-06T19:41:05.901Z,100290.30
2019-05-06T19:43:37.879Z,100286.64
2019-05-06T19:46:11.972Z,100288.02
2019-05-06T19:48:43.482Z,100281.78
2019-05-06T19:51:15.187Z,100288.38
2019-05-06T19:53:47.121Z,100292.55
2019-05-06T19:56:18.838Z,100292.92
2019-05-06T19:58:52.544Z,100305.20
2019-05-06T20:01:24.012Z,100314.41
2019-05-06T20:03:55.732Z,100326.16
2019-05-06T20:06:55.548Z,100323.34
2019-05-06T20:09:44.470Z,100322.88
2019-05-06T20:12:23.648Z,100330.33
2019-05-06T20:14:58.351Z,100332.05
2019-05-06T20:17:30.344Z,100329.28
2019-05-06T20:20:03.001Z,100332.27
2019-05-06T20:22:34.744Z,100324.19
2019-05-06T20:25:06.632Z,100325.92
2019-05-06T20:27:38.334Z,100322.40
2019-05-06T20:30:11.585Z,100310.00
2019-05-06T20:32:44.206Z,100317.73
2019-05-06T20:35:15.923Z,100324.14
2019-05-06T20:37:47.808Z,100336.07
2019-05-06T20:40:19.644Z,100341.80
2019-05-06T20:42:53.648Z,100340.94
2019-05-06T20:45:25.358Z,100342.88
2019-05-06T20:47:57.047Z,100342.76
2019-05-06T20:50:29.199Z,100345.63
2019-05-06T20:53:00.956Z,100351.89
2019-05-06T20:55:35.761Z,100341.05
2019-05-06T20:58:07.758Z,100343.95
2019-05-06T21:00:40.017Z,100343.29
2019-05-06T21:03:12.226Z,100347.37
2019-05-06T21:05:44.144Z,100348.87
2019-05-06T21:08:15.918Z,100350.55
2019-05-06T21:10:49.829Z,100351.03
2019-05-06T21:13:29.456Z,100355.03
2019-05-06T21:15:56.276Z,100349.67
2019-05-06T21:18:27.947Z,100343.89
2019-05-06T21:21:02.086Z,100348.48
2019-05-06T21:23:35.778Z,100354.41
2019-05-06T21:26:07.508Z,100360.77
2019-05-06T21:28:39.178Z,100366.77
2019-05-06T21:31:12.485Z,100358.04
2019-05-06T21:33:44.685Z,100359.69
2019-05-06T21:36:16.447Z,100353.03
2019-05-06T21:38:48.459Z,100355.09
2019-05-06T21:41:21.998Z,100355.89
2019-05-06T21:43:55.485Z,100349.77
2019-05-06T21:46:27.157Z,100354.89
2019-05-06T21:48:58.916Z,100341.89
2019-05-06T21:51:32.716Z,100343.62
2019-05-06T21:54:04.217Z,100343.61
2019-05-06T21:56:35.891Z,100338.15
2019-05-06T21:59:08.710Z,100336.36
2019-05-06T22:01:42.987Z,100337.53
2019-05-06T22:04:22.967Z,100337.28
2019-05-06T22:06:54.078Z,100338.34
2019-05-06T22:09:25.739Z,100336.75
2019-05-06T22:11:57.388Z,100337.61
2019-05-06T22:14:29.061Z,100329.34
2019-05-06T22:17:03.849Z,100326.41
2019-05-06T22:19:34.108Z,100321.67
2019-05-06T22:22:07.780Z,100325.02
2019-05-06T22:24:55.026Z,100317.94
2019-05-06T22:27:22.800Z,100308.67
2019-05-06T22:29:54.504Z,100311.33
2019-05-06T22:32:26.164Z,100310.92
2019-05-06T22:34:57.851Z,100315.01
2019-05-06T22:37:33.143Z,100318.59
2019-05-06T22:40:08.386Z,100315.74
2019-05-06T22:42:40.065Z,100309.66
2019-05-06T22:45:12.573Z,100318.40
2019-05-06T22:47:47.395Z,100319.45
2019-05-06T22:50:19.042Z,100321.67
2019-05-06T22:52:58.063Z,100317.79
2019-05-06T22:55:32.467Z,100305.59
2019-05-06T22:58:04.160Z,100306.27
2019-05-06T23:00:37.514Z,100306.41
2019-05-06T23:03:13.876Z,100306.81
2019-05-06T23:05:52.685Z,100308.80
2019-05-06T23:08:26.744Z,100305.32
2019-05-06T23:10:57.727Z,100306.15
2019-05-06T23:13:29.852Z,100307.41
2019-05-06T23:16:02.808Z,100307.20
2019-05-06T23:18:37.043Z,100309.87
2019-05-06T23:21:08.682Z,100305.39
2019-05-06T23:23:40.417Z,100306.80
2019-05-06T23:26:22.850Z,100303.72
2019-05-06T23:28:54.904Z,100294.53
2019-05-06T23:31:26.595Z,100298.00
2019-05-06T23:33:58.258Z,100297.38
2019-05-06T23:36:52.960Z,100305.39
2019-05-06T23:40:03.449Z,100306.80
2019-05-06T23:43:12.648Z,100295.88
2019-05-06T23:46:19.886Z,100296.45
2019-05-06T23:49:27.065Z,100289.21
2019-05-06T23:52:34.300Z,100289.13
2019-05-06T23:55:42.058Z,100282.86
2019-05-06T23:58:14.715Z,100281.19
